Aeroporto :
LOGIN :

Iscrizione | Disclaimer

   EN    FR    IT 

 










Sommario :    VFR   VFR Marginale   IFR   IFR Intensivo   IFR Molto Intensivo
Visibilità : 
Base nubi : 
>= 8 km
>= 3000ft
5 / 8 km
1000 / 3000 ft
1500m / 5 km
500 / 1000 ft
800 / 1500m
200 / 500 ft
< 800m
< 200 ft
Simboli :   Temporali  Nebbia  Neve Forte  Precipitazioni Forti  Vento > 20 kt
SIGMETs :   Varie  Temporali  Ghiacco  Turbolenza  Onda orograficha  Ceneri Vulcaniche






- Altitudine del aeroporto : 404 ft
- Codice IATA : WRO


EPWR - Wroclaw

ULTIMO METAR :
  • 250030Z 22009KT 9999 -RA FEW031 BKN040 06/04 Q1003

METARs OBSOLETI :
  • 250000Z 23010KT 9999 -RA SCT030 BKN040 06/04 Q1004
  • 242330Z 22011KT 9999 -RA BKN036 06/03 Q1004
  • 242300Z 20008KT 9999 -RA FEW023 BKN036 06/02 Q1005
  • 242230Z 18006KT 9999 FEW015 BKN033 06/01 Q1005
  • 242200Z 17005KT 9999 -RA FEW015 SCT020 BKN030 05/01 Q1006

TAF TAF EPWR
Valido dal 25 a 00 ore il 26 a 00 ore UTC


242330Z 2500/2524 18005KT 9999 BKN025
BECMG 2500/2503 24010KT
TEMPO 2500/2510 24015G25KT 4000 RA BR BKN013
TEMPO 2510/2521 24016G28KT 4000 SHRA BKN030CB



MetMap, La meteo Aeronautica in un colpo d'occhio ! - Copyright ORBIFLY Dicembre 2007 - Disclaimer

ORBIFLY MET'MAP TEAM :

Programmazione e sviluppo : Alexandra Zaïnal
Concezione : Baudouin d'Aumeries
Aiuto per la programmazione : Marc-Olivier Méhu
Supporto tecnico e logistico : Manuel Goepfert
Aiuto per la traduzione : Arnaldo La Scala

Contatto : metmap@orbifly.com




FONTI E CREDITI :

   NOAA